createdAt,value
2019-04-21T00:00:32.140Z,9.43
2019-04-21T00:03:07.435Z,8.13
2019-04-21T00:05:54.545Z,9.13
2019-04-21T00:08:41.437Z,8.13
2019-04-21T00:11:01.425Z,9.40
2019-04-21T00:13:25.403Z,8.95
2019-04-21T00:15:46.370Z,8.48
2019-04-21T00:18:13.923Z,10.55
2019-04-21T00:20:49.499Z,9.80
2019-04-21T00:23:30.007Z,8.95
2019-04-21T00:25:55.178Z,10.20
2019-04-21T00:28:35.888Z,9.40
2019-04-21T00:31:01.813Z,9.98
2019-04-21T00:33:21.584Z,9.85
2019-04-21T00:35:55.034Z,11.40
2019-04-21T00:38:40.375Z,9.98
2019-04-21T00:41:07.303Z,10.13
2019-04-21T00:43:35.128Z,10.28
2019-04-21T00:45:58.466Z,9.60
2019-04-21T00:48:41.318Z,9.03
2019-04-21T00:51:25.129Z,9.23
2019-04-21T00:53:51.184Z,10.15
2019-04-21T00:56:22.002Z,12.23
2019-04-21T00:58:53.727Z,9.23
2019-04-21T01:01:19.881Z,9.73
2019-04-21T01:03:53.123Z,10.32
2019-04-21T01:06:22.391Z,9.43
2019-04-21T01:08:55.707Z,9.90
2019-04-21T01:11:23.851Z,9.73
2019-04-21T01:13:58.264Z,13.13
2019-04-21T01:16:27.269Z,9.63
2019-04-21T01:18:55.322Z,10.90
2019-04-21T01:21:14.024Z,10.15
2019-04-21T01:23:35.929Z,9.65
2019-04-21T01:26:20.926Z,10.80
2019-04-21T01:28:49.511Z,11.83
2019-04-21T01:31:23.017Z,10.95
2019-04-21T01:33:56.211Z,11.03
2019-04-21T01:36:24.170Z,12.88
2019-04-21T01:39:00.954Z,11.93
2019-04-21T01:41:31.394Z,11.90
2019-04-21T01:46:58.751Z,13.50
2019-04-21T01:49:27.512Z,13.80
2019-04-21T01:52:17.882Z,12.65
2019-04-21T01:54:55.839Z,11.70
2019-04-21T01:57:29.463Z,11.10
2019-04-21T01:59:58.005Z,10.45
2019-04-21T02:02:40.412Z,13.00
2019-04-21T02:05:17.538Z,12.00
2019-04-21T02:07:39.037Z,13.15
2019-04-21T02:10:11.203Z,11.03
2019-04-21T02:12:48.430Z,14.20
2019-04-21T02:15:16.960Z,13.72
2019-04-21T02:17:45.781Z,14.58
2019-04-21T02:20:08.157Z,12.40
2019-04-21T02:23:00.436Z,15.43
2019-04-21T02:25:34.923Z,17.05
2019-04-21T02:27:50.383Z,13.20
2019-04-21T02:30:27.557Z,12.65
2019-04-21T02:33:00.105Z,12.03
2019-04-21T02:38:03.834Z,11.48
2019-04-21T02:40:44.113Z,12.43
2019-04-21T02:43:05.402Z,13.88
2019-04-21T02:45:40.964Z,10.78
2019-04-21T02:48:19.216Z,11.70
2019-04-21T02:53:09.502Z,11.57
2019-04-21T02:55:36.375Z,13.35
2019-04-21T03:00:55.501Z,14.58
2019-04-21T03:06:27.138Z,12.45
2019-04-21T03:08:43.043Z,13.15
2019-04-21T03:11:08.950Z,12.25
2019-04-21T03:13:54.738Z,11.55
2019-04-21T03:16:21.444Z,11.75
2019-04-21T03:18:54.117Z,10.90
2019-04-21T03:21:16.325Z,12.47
2019-04-21T03:23:58.352Z,11.83
2019-04-21T03:26:40.049Z,13.58
2019-04-21T03:28:54.542Z,11.65
2019-04-21T03:34:29.288Z,12.75
2019-04-21T03:41:32.192Z,11.30
2019-04-21T03:44:00.747Z,13.38
2019-04-21T03:49:04.912Z,14.60
2019-04-21T03:51:35.884Z,13.03
2019-04-21T03:54:00.068Z,12.28
2019-04-21T03:57:53.033Z,12.13
2019-04-21T03:59:12.790Z,10.25
2019-04-21T04:01:44.522Z,11.75
2019-04-21T04:07:04.377Z,11.90
2019-04-21T04:09:54.073Z,11.57
2019-04-21T04:11:54.698Z,11.33
2019-04-21T04:14:38.834Z,13.08
2019-04-21T04:19:39.317Z,10.03
2019-04-21T04:22:20.971Z,13.32
2019-04-21T04:25:07.018Z,12.50
2019-04-21T04:27:35.358Z,11.15
2019-04-21T04:29:57.249Z,10.85
2019-04-21T04:32:25.206Z,14.00
2019-04-21T04:35:02.112Z,12.50
2019-04-21T04:37:32.832Z,15.53
2019-04-21T04:43:09.732Z,12.07
2019-04-21T04:45:23.766Z,12.10
2019-04-21T04:47:56.430Z,12.43
2019-04-21T04:50:24.494Z,12.40
2019-04-21T04:52:47.474Z,12.07
2019-04-21T05:03:13.478Z,9.95
2019-04-21T05:09:13.055Z,10.10
2019-04-21T05:14:25.085Z,12.55
2019-04-21T05:16:55.826Z,13.03
2019-04-21T05:19:22.643Z,11.00
2019-04-21T05:24:01.319Z,10.03
2019-04-21T05:26:29.950Z,11.35
2019-04-21T05:28:55.387Z,14.38
2019-04-21T05:31:45.885Z,14.68
2019-04-21T05:34:18.398Z,10.18
2019-04-21T05:37:06.085Z,12.73
2019-04-21T05:39:29.610Z,13.08
2019-04-21T05:41:52.709Z,11.50
2019-04-21T05:44:41.913Z,11.65
2019-04-21T05:47:17.294Z,12.80
2019-04-21T05:49:49.976Z,11.50
2019-04-21T05:52:19.850Z,12.30
2019-04-21T05:54:57.414Z,14.30
2019-04-21T05:57:27.258Z,13.93
2019-04-21T05:59:55.571Z,13.13
2019-04-21T06:02:43.782Z,13.80
2019-04-21T06:05:09.937Z,13.20
2019-04-21T06:07:29.000Z,12.18
2019-04-21T06:09:59.522Z,12.88
2019-04-21T06:12:29.800Z,15.10
2019-04-21T06:15:10.118Z,16.07
2019-04-21T06:17:41.200Z,15.30
2019-04-21T06:22:31.402Z,16.60
2019-04-21T06:25:41.568Z,14.15
2019-04-21T06:27:51.651Z,14.55
2019-04-21T06:30:03.476Z,17.23
2019-04-21T06:32:48.404Z,13.62
2019-04-21T06:37:51.050Z,14.83
2019-04-21T06:40:46.229Z,13.35
2019-04-21T06:43:04.433Z,17.40
2019-04-21T06:45:33.256Z,15.43
2019-04-21T06:50:22.763Z,15.25
2019-04-21T06:52:53.859Z,15.25
2019-04-21T06:55:29.588Z,12.53
2019-04-21T06:57:51.657Z,12.58
2019-04-21T07:00:18.575Z,15.55
2019-04-21T07:03:06.192Z,13.13
2019-04-21T07:05:26.250Z,12.43
2019-04-21T07:08:16.770Z,11.33
2019-04-21T07:10:26.584Z,10.50
2019-04-21T07:12:58.997Z,11.55
2019-04-21T07:15:35.739Z,12.15
2019-04-21T07:17:59.929Z,14.35
2019-04-21T07:20:28.238Z,11.85
2019-04-21T07:23:03.571Z,12.13
2019-04-21T07:25:32.801Z,11.05
2019-04-21T07:28:02.996Z,11.15
2019-04-21T07:30:56.643Z,12.33
2019-04-21T07:33:20.733Z,13.68
2019-04-21T07:35:32.205Z,10.60
2019-04-21T07:38:04.395Z,10.45
2019-04-21T07:40:28.732Z,13.10
2019-04-21T07:43:02.386Z,11.65
2019-04-21T07:45:33.418Z,9.20
2019-04-21T07:48:08.283Z,11.00
2019-04-21T07:50:38.562Z,12.45
2019-04-21T07:53:22.794Z,11.38
2019-04-21T07:55:30.047Z,11.43
2019-04-21T07:58:20.982Z,10.28
2019-04-21T08:01:04.437Z,11.63
2019-04-21T08:03:20.722Z,11.78
2019-04-21T08:05:52.609Z,11.10
2019-04-21T08:08:20.775Z,10.35
2019-04-21T08:10:52.249Z,10.50
2019-04-21T08:13:28.783Z,11.12
2019-04-21T08:15:52.889Z,10.75
2019-04-21T08:18:28.310Z,11.43
2019-04-21T08:20:54.477Z,10.88
2019-04-21T08:23:29.433Z,11.03
2019-04-21T08:26:03.303Z,12.45
2019-04-21T08:28:26.202Z,12.85
2019-04-21T08:30:57.921Z,11.00
2019-04-21T08:33:37.175Z,12.78
2019-04-21T08:36:20.752Z,11.53
2019-04-21T08:38:31.482Z,12.60
2019-04-21T08:41:03.631Z,12.37
2019-04-21T08:43:36.768Z,11.50
2019-04-21T08:45:58.918Z,12.35
2019-04-21T08:48:29.450Z,11.33
2019-04-21T08:51:14.008Z,11.43
2019-04-21T08:53:35.469Z,9.20
2019-04-21T08:56:15.988Z,10.08
2019-04-21T08:58:54.955Z,9.83
2019-04-21T09:01:38.349Z,9.80
2019-04-21T09:04:07.577Z,9.80
2019-04-21T09:06:54.191Z,12.88
2019-04-21T09:09:11.866Z,8.15
2019-04-21T09:11:36.257Z,9.90
2019-04-21T09:14:07.763Z,10.03
2019-04-21T09:16:36.621Z,14.75
2019-04-21T09:19:04.486Z,9.30
2019-04-21T09:21:46.947Z,8.90
2019-04-21T09:24:11.689Z,10.72
2019-04-21T09:26:36.950Z,9.03
2019-04-21T09:29:04.373Z,10.05
2019-04-21T09:31:29.149Z,10.03
2019-04-21T09:33:58.710Z,8.48
2019-04-21T09:36:33.403Z,9.40
2019-04-21T09:39:05.476Z,9.38
2019-04-21T09:41:28.314Z,11.95
2019-04-21T09:43:59.272Z,8.38
2019-04-21T09:46:29.798Z,14.78
2019-04-21T09:49:02.713Z,7.85
2019-04-21T09:51:30.448Z,9.80
2019-04-21T09:54:05.697Z,8.73
2019-04-21T09:56:39.477Z,7.80
2019-04-21T09:59:11.343Z,11.35
2019-04-21T10:01:46.206Z,8.95
2019-04-21T10:04:04.339Z,10.10
2019-04-21T10:09:18.374Z,7.83
2019-04-21T10:11:45.927Z,8.13
2019-04-21T10:14:15.384Z,9.83
2019-04-21T10:16:46.124Z,10.25
2019-04-21T10:19:15.384Z,8.13
2019-04-21T10:21:44.602Z,9.58
2019-04-21T10:24:13.698Z,8.20
2019-04-21T10:26:43.105Z,11.93
2019-04-21T10:29:19.784Z,8.75
2019-04-21T10:31:43.364Z,8.25
2019-04-21T10:34:13.505Z,11.88
2019-04-21T10:36:42.947Z,7.40
2019-04-21T10:39:13.535Z,13.85
2019-04-21T10:41:43.523Z,8.23
2019-04-21T10:44:13.558Z,8.33
2019-04-21T10:46:45.351Z,8.00
2019-04-21T10:49:14.704Z,7.53
2019-04-21T10:51:44.612Z,8.63
2019-04-21T10:54:13.805Z,8.15
2019-04-21T10:56:44.427Z,7.55
2019-04-21T10:59:14.294Z,10.32
2019-04-21T11:01:45.188Z,7.95
2019-04-21T11:04:22.863Z,7.15
2019-04-21T11:06:48.676Z,8.95
2019-04-21T11:09:17.957Z,8.00
2019-04-21T11:11:49.853Z,8.40
2019-04-21T11:14:17.918Z,9.98
2019-04-21T11:16:49.272Z,9.33
2019-04-21T11:19:18.385Z,6.67
2019-04-21T11:21:47.491Z,7.78
2019-04-21T11:24:18.138Z,13.80
2019-04-21T11:26:47.789Z,9.33
2019-04-21T11:29:17.141Z,8.38
2019-04-21T11:31:47.307Z,9.53
2019-04-21T11:34:16.644Z,9.50
2019-04-21T11:36:45.957Z,8.93
2019-04-21T11:39:35.100Z,11.15
2019-04-21T11:41:54.002Z,7.87
2019-04-21T11:44:24.789Z,8.08
2019-04-21T11:46:54.505Z,9.68
2019-04-21T11:49:24.280Z,9.23
2019-04-21T11:51:55.121Z,8.05
2019-04-21T11:54:24.868Z,8.03
2019-04-21T11:56:54.871Z,6.45
2019-04-21T11:59:24.220Z,8.15
2019-04-21T12:01:54.026Z,8.58
2019-04-21T12:04:23.422Z,7.42
2019-04-21T12:06:55.591Z,9.03
2019-04-21T12:09:24.999Z,7.70
2019-04-21T12:11:55.005Z,5.80
2019-04-21T12:14:24.185Z,6.47
2019-04-21T12:16:55.103Z,9.00
2019-04-21T12:19:25.016Z,8.30
2019-04-21T12:22:06.312Z,9.48
2019-04-21T12:24:26.753Z,7.20
2019-04-21T12:26:56.425Z,9.60
2019-04-21T12:29:26.877Z,11.43
2019-04-21T12:32:09.761Z,10.45
2019-04-21T12:34:39.699Z,9.00
2019-04-21T12:37:13.057Z,11.00
2019-04-21T12:39:43.044Z,8.73
2019-04-21T12:42:14.452Z,10.15
2019-04-21T12:44:43.645Z,9.15
2019-04-21T12:47:14.060Z,8.70
2019-04-21T12:49:43.738Z,10.10
2019-04-21T12:52:13.546Z,8.20
2019-04-21T12:54:43.946Z,9.98
2019-04-21T12:57:13.802Z,7.33
2019-04-21T12:59:43.053Z,8.45
2019-04-21T13:02:13.639Z,8.43
2019-04-21T13:04:43.926Z,8.70
2019-04-21T13:07:13.363Z,9.93
2019-04-21T13:09:44.197Z,9.93
2019-04-21T13:12:15.134Z,9.70
2019-04-21T13:14:44.465Z,7.28
2019-04-21T13:17:13.565Z,7.83
2019-04-21T13:19:43.238Z,8.55
2019-04-21T13:22:12.364Z,10.45
2019-04-21T13:24:42.097Z,6.65
2019-04-21T13:27:12.709Z,8.25
2019-04-21T13:29:42.108Z,6.75
2019-04-21T13:32:12.534Z,6.37
2019-04-21T13:34:42.144Z,7.47
2019-04-21T13:37:11.945Z,7.37
2019-04-21T13:40:09.752Z,6.03
2019-04-21T13:42:26.760Z,6.25
2019-04-21T13:44:48.802Z,7.67
2019-04-21T13:47:18.672Z,8.55
2019-04-21T13:49:47.796Z,6.85
2019-04-21T13:52:18.505Z,8.18
2019-04-21T13:54:49.541Z,9.78
2019-04-21T13:57:19.071Z,6.08
2019-04-21T13:59:51.249Z,6.08
2019-04-21T14:02:20.774Z,5.95
2019-04-21T14:04:51.669Z,7.42
2019-04-21T14:07:20.865Z,6.83
2019-04-21T14:09:57.944Z,7.40
2019-04-21T14:12:21.249Z,8.70
2019-04-21T14:14:50.504Z,6.58
2019-04-21T14:17:19.712Z,6.55
2019-04-21T14:19:49.426Z,6.80
2019-04-21T14:22:20.176Z,6.87
2019-04-21T14:24:49.960Z,5.90
2019-04-21T14:27:20.396Z,5.70
2019-04-21T14:29:49.594Z,5.12
2019-04-21T14:32:20.234Z,6.50
2019-04-21T14:34:50.696Z,9.58
2019-04-21T14:37:20.528Z,6.40
2019-04-21T14:39:57.871Z,6.78
2019-04-21T14:42:20.404Z,6.47
2019-04-21T14:44:51.099Z,6.50
2019-04-21T14:47:31.511Z,8.28
2019-04-21T14:50:15.535Z,6.33
2019-04-21T14:52:48.568Z,5.17
2019-04-21T14:55:28.865Z,6.78
2019-04-21T14:57:58.995Z,5.45
2019-04-21T15:00:33.260Z,6.08
2019-04-21T15:03:03.643Z,6.35
2019-04-21T15:05:33.450Z,7.33
2019-04-21T15:08:03.421Z,5.25
2019-04-21T15:10:34.000Z,7.08
2019-04-21T15:13:03.553Z,8.00
2019-04-21T15:15:32.504Z,6.53
2019-04-21T15:18:01.905Z,6.12
2019-04-21T15:20:31.069Z,5.60
2019-04-21T15:23:00.182Z,5.55
2019-04-21T15:25:30.172Z,7.15
2019-04-21T15:27:59.405Z,7.25
2019-04-21T15:30:28.851Z,5.60
2019-04-21T15:32:58.160Z,5.78
2019-04-21T15:35:27.243Z,6.25
2019-04-21T15:37:57.925Z,4.62
2019-04-21T15:40:39.867Z,5.28
2019-04-21T15:42:58.066Z,6.83
2019-04-21T15:45:28.397Z,5.60
2019-04-21T15:47:58.167Z,5.78
2019-04-21T15:50:28.098Z,5.95
2019-04-21T15:53:01.423Z,4.37
2019-04-21T15:55:41.398Z,4.83
2019-04-21T15:58:22.774Z,6.25
2019-04-21T16:01:00.587Z,4.62
2019-04-21T16:03:30.970Z,4.50
2019-04-21T16:06:01.298Z,5.05
2019-04-21T16:08:31.198Z,4.45
2019-04-21T16:11:03.851Z,4.72
2019-04-21T16:13:31.964Z,4.95
2019-04-21T16:16:02.224Z,5.08
2019-04-21T16:18:32.166Z,5.47
2019-04-21T16:21:02.068Z,4.22
2019-04-21T16:23:32.734Z,5.12
2019-04-21T16:26:02.568Z,5.33
2019-04-21T16:28:33.189Z,4.92
2019-04-21T16:31:02.714Z,5.87
2019-04-21T16:33:33.333Z,5.83
2019-04-21T16:36:02.850Z,5.15
2019-04-21T16:38:33.432Z,5.42
2019-04-21T16:41:05.533Z,5.87
2019-04-21T16:43:33.318Z,4.75
2019-04-21T16:46:02.720Z,5.50
2019-04-21T16:48:31.825Z,5.53
2019-04-21T16:51:01.644Z,5.45
2019-04-21T16:53:32.645Z,5.40
2019-04-21T16:56:04.776Z,4.90
2019-04-21T16:58:36.721Z,5.40
2019-04-21T17:01:14.880Z,4.67
2019-04-21T17:03:42.463Z,4.37
2019-04-21T17:06:13.118Z,4.28
2019-04-21T17:08:43.067Z,4.50
2019-04-21T17:11:18.848Z,5.87
2019-04-21T17:13:45.674Z,5.78
2019-04-21T17:16:44.931Z,3.83
2019-04-21T17:18:58.733Z,5.15
2019-04-21T17:21:16.810Z,6.97
2019-04-21T17:23:46.411Z,6.90
2019-04-21T17:26:15.441Z,5.40
2019-04-21T17:28:44.937Z,5.47
2019-04-21T17:31:14.533Z,5.15
2019-04-21T17:33:46.498Z,5.30
2019-04-21T17:36:14.690Z,5.95
2019-04-21T17:38:43.995Z,4.67
2019-04-21T17:41:24.740Z,4.60
2019-04-21T17:43:43.711Z,4.97
2019-04-21T17:46:20.326Z,5.30
2019-04-21T17:48:45.016Z,5.60
2019-04-21T17:51:32.411Z,4.35
2019-04-21T17:54:08.228Z,4.50
2019-04-21T17:57:00.173Z,4.67
2019-04-21T17:59:41.169Z,4.20
2019-04-21T18:01:56.282Z,4.00
2019-04-21T18:04:29.255Z,4.58
2019-04-21T18:06:59.274Z,4.42
2019-04-21T18:09:46.929Z,4.17
2019-04-21T18:12:08.057Z,3.95
2019-04-21T18:14:22.065Z,5.03
2019-04-21T18:16:51.638Z,4.05
2019-04-21T18:19:26.779Z,4.25
2019-04-21T18:22:10.725Z,3.72
2019-04-21T18:24:54.237Z,3.50
2019-04-21T18:27:15.667Z,3.33
2019-04-21T18:29:46.387Z,3.70
2019-04-21T18:32:19.721Z,3.80
2019-04-21T18:35:08.446Z,3.65
2019-04-21T18:37:42.739Z,2.98
2019-04-21T18:40:16.673Z,3.50
2019-04-21T18:43:05.564Z,4.83
2019-04-21T18:45:54.899Z,4.67
2019-04-21T18:48:19.418Z,5.72
2019-04-21T18:50:55.135Z,2.77
2019-04-21T18:53:43.771Z,3.90
2019-04-21T18:56:04.892Z,4.25
2019-04-21T18:58:28.650Z,2.67
2019-04-21T19:01:06.909Z,3.02
2019-04-21T19:03:36.728Z,4.20
2019-04-21T19:06:08.726Z,3.22
2019-04-21T19:08:53.404Z,3.05
2019-04-21T19:11:18.771Z,3.10
2019-04-21T19:14:23.550Z,2.62
2019-04-21T19:16:42.832Z,4.15
2019-04-21T19:21:33.531Z,3.00
2019-04-21T19:24:21.646Z,4.42
2019-04-21T19:26:49.735Z,3.27
2019-04-21T19:29:22.808Z,3.50
2019-04-21T19:31:48.175Z,3.10
2019-04-21T19:34:06.102Z,3.08
2019-04-21T19:36:29.027Z,3.47
2019-04-21T19:39:06.837Z,2.77
2019-04-21T19:41:41.220Z,2.67
2019-04-21T19:44:17.428Z,3.60
2019-04-21T19:46:44.650Z,3.90
2019-04-21T19:49:21.680Z,4.12
2019-04-21T19:51:40.582Z,4.20
2019-04-21T19:54:10.999Z,3.47
2019-04-21T19:56:32.208Z,3.20
2019-04-21T19:59:01.661Z,3.20
2019-04-21T20:01:32.380Z,3.47
2019-04-21T20:04:02.813Z,3.60
2019-04-21T20:06:45.420Z,4.33
2019-04-21T20:09:19.043Z,5.83
2019-04-21T20:11:52.271Z,3.50
2019-04-21T20:14:44.833Z,3.92
2019-04-21T20:16:49.331Z,5.20
2019-04-21T20:19:10.126Z,5.28
2019-04-21T20:21:36.620Z,5.33
2019-04-21T20:24:11.110Z,4.53
2019-04-21T20:26:41.565Z,4.45
2019-04-21T20:29:20.188Z,3.70
2019-04-21T20:31:54.424Z,6.10
2019-04-21T20:34:26.640Z,7.15
2019-04-21T20:37:03.171Z,5.75
2019-04-21T20:39:16.591Z,7.83
2019-04-21T20:41:53.390Z,9.45
2019-04-21T20:44:29.561Z,12.82
2019-04-21T20:46:55.546Z,6.28
2019-04-21T20:49:23.094Z,14.35
2019-04-21T20:52:05.537Z,4.50
2019-04-21T20:54:30.062Z,7.75
2019-04-21T20:57:01.666Z,5.15
2019-04-21T20:59:30.014Z,7.03
2019-04-21T21:02:05.502Z,7.00
2019-04-21T21:04:28.015Z,10.95
2019-04-21T21:07:07.850Z,10.95
2019-04-21T21:09:32.432Z,12.50
2019-04-21T21:12:19.043Z,7.40
2019-04-21T21:14:36.295Z,7.87
2019-04-21T21:17:18.309Z,8.83
2019-04-21T21:19:42.674Z,6.90
2019-04-21T21:21:59.163Z,10.13
2019-04-21T21:24:41.896Z,8.28
2019-04-21T21:27:10.314Z,6.45
2019-04-21T21:29:41.862Z,8.95
2019-04-21T21:32:16.895Z,5.28
2019-04-21T21:34:45.840Z,9.25
2019-04-21T21:37:21.575Z,7.15
2019-04-21T21:39:55.251Z,8.05
2019-04-21T21:42:01.952Z,6.40
2019-04-21T21:44:29.984Z,8.00
2019-04-21T21:47:13.270Z,7.35
2019-04-21T21:49:46.850Z,7.53
2019-04-21T21:52:09.249Z,9.13
2019-04-21T21:54:31.851Z,8.35
2019-04-21T21:57:03.069Z,6.03
2019-04-21T21:59:36.511Z,6.47
2019-04-21T22:02:03.568Z,5.00
2019-04-21T22:04:35.589Z,6.47
2019-04-21T22:07:07.270Z,8.45
2019-04-21T22:09:34.570Z,9.83
2019-04-21T22:12:06.600Z,9.08
2019-04-21T22:14:41.709Z,10.65
2019-04-21T22:17:21.433Z,8.85
2019-04-21T22:20:00.110Z,8.20
2019-04-21T22:22:23.135Z,5.90
2019-04-21T22:24:50.694Z,9.28
2019-04-21T22:27:09.443Z,10.70
2019-04-21T22:29:44.404Z,5.92
2019-04-21T22:32:15.779Z,6.12
2019-04-21T22:34:47.701Z,8.13
2019-04-21T22:37:28.766Z,5.25
2019-04-21T22:39:59.493Z,6.40
2019-04-21T22:42:21.613Z,5.83
2019-04-21T22:44:43.229Z,6.70
2019-04-21T22:47:18.526Z,4.42
2019-04-21T22:49:44.314Z,8.63
2019-04-21T22:52:18.731Z,5.97
2019-04-21T22:54:46.647Z,6.60
2019-04-21T22:57:21.142Z,6.28
2019-04-21T22:59:53.904Z,5.67
2019-04-21T23:02:24.069Z,5.40
2019-04-21T23:04:51.486Z,5.83
2019-04-21T23:07:21.090Z,5.12
2019-04-21T23:09:49.509Z,7.65
2019-04-21T23:12:20.527Z,5.25
2019-04-21T23:15:01.163Z,6.60
2019-04-21T23:17:40.551Z,7.10
2019-04-21T23:20:08.879Z,8.30
2019-04-21T23:22:54.977Z,6.65
2019-04-21T23:25:13.616Z,5.92
2019-04-21T23:27:40.421Z,6.03
2019-04-21T23:30:20.280Z,6.92
2019-04-21T23:32:36.337Z,8.20
2019-04-21T23:34:56.111Z,8.78
2019-04-21T23:37:27.188Z,5.53
2019-04-21T23:40:01.073Z,5.47
2019-04-21T23:42:31.769Z,7.53
2019-04-21T23:44:59.612Z,6.25
2019-04-21T23:47:41.817Z,7.85
2019-04-21T23:50:07.443Z,6.65
2019-04-21T23:52:29.901Z,7.90
2019-04-21T23:54:59.159Z,8.50
2019-04-21T23:57:34.384Z,7.67
2019-04-21T23:59:59.625Z,7.60
